Time;durP1;ratioP1;P1;durP2;ratioP2;P2;SDS_P1;SDS_P2;PMS_P1;PMS_P2;Temp;Humidity;BMP_temperature;BMP_pressure;BME280_temperature;BME280_humidity;BME280_pressure;Samples;Min_cycle;Max_cycle;Signal;HPM_P1;HPM_P2
2024/01/17 00:01:22;;;;;;;19.95;11.38;;;-2.90;1.00;;;;;;7366204;19;20018;-70
2024/01/17 00:03:52;;;;;;;20.60;12.55;;;-2.90;1.00;;;;;;7365046;19;20021;-69
2024/01/17 00:06:22;;;;;;;23.08;12.27;;;-2.90;1.00;;;;;;7362537;19;20011;-68
2024/01/17 00:08:55;;;;;;;17.20;10.82;;;-3.00;1.00;;;;;;7365908;19;20014;-69
2024/01/17 00:11:25;;;;;;;22.92;11.10;;;-3.10;1.00;;;;;;7365297;19;20050;-69
2024/01/17 00:13:56;;;;;;;18.30;11.60;;;-3.10;1.00;;;;;;7365867;19;20086;-69
2024/01/17 00:16:27;;;;;;;24.08;12.02;;;-3.10;1.00;;;;;;7364087;19;20010;-69
2024/01/17 00:18:57;;;;;;;26.55;12.32;;;-3.00;1.00;;;;;;7366632;19;20006;-68
2024/01/17 00:21:28;;;;;;;24.40;13.02;;;-3.00;1.00;;;;;;7365308;19;20058;-68
2024/01/17 00:24:01;;;;;;;22.42;12.45;;;-2.90;1.00;;;;;;7365378;19;20021;-69
2024/01/17 00:26:31;;;;;;;26.70;12.65;;;-3.00;1.00;;;;;;7363780;19;20050;-69
2024/01/17 00:29:01;;;;;;;24.98;12.93;;;-3.00;1.00;;;;;;7365487;19;20086;-70
2024/01/17 00:31:32;;;;;;;20.70;12.52;;;-3.00;1.00;;;;;;7363738;19;20013;-69
2024/01/17 00:34:02;;;;;;;21.02;12.13;;;-3.00;1.00;;;;;;7364396;19;20543;-70
2024/01/17 00:36:33;;;;;;;26.02;13.55;;;-3.00;1.00;;;;;;7364001;19;20014;-69
2024/01/17 00:39:06;;;;;;;21.52;12.05;;;-3.00;1.00;;;;;;7366296;19;20379;-69
2024/01/17 00:41:36;;;;;;;22.30;12.63;;;-3.10;1.00;;;;;;7365999;19;20015;-69
2024/01/17 00:44:06;;;;;;;21.60;12.27;;;-3.10;1.00;;;;;;7365834;19;20047;-68
2024/01/17 00:46:37;;;;;;;22.42;11.63;;;-3.10;1.00;;;;;;7363702;19;20017;-70
2024/01/17 00:49:07;;;;;;;21.73;13.13;;;-3.10;1.00;;;;;;7364479;19;20031;-69
2024/01/17 00:51:37;;;;;;;20.52;13.13;;;-3.10;1.00;;;;;;7362632;19;20011;-69
2024/01/17 00:54:10;;;;;;;20.38;11.82;;;-3.10;1.00;;;;;;7366026;19;20074;-70
2024/01/17 00:56:42;;;;;;;22.15;12.80;;;-3.10;1.00;;;;;;7363908;19;20015;-69
2024/01/17 00:59:12;;;;;;;27.77;13.48;;;-3.10;1.00;;;;;;7366495;19;20026;-69
2024/01/17 01:01:42;;;;;;;23.38;13.90;;;-2.90;1.00;;;;;;7364121;19;20007;-70
2024/01/17 01:04:13;;;;;;;26.92;13.90;;;-2.80;1.00;;;;;;7365599;19;20033;-70
2024/01/17 01:06:43;;;;;;;26.48;12.52;;;-2.90;1.00;;;;;;7364344;19;20006;-69
2024/01/17 01:09:16;;;;;;;24.08;13.35;;;-2.90;1.00;;;;;;7365068;19;20364;-69
2024/01/17 01:11:46;;;;;;;20.25;12.55;;;-2.80;1.00;;;;;;7370696;19;20014;-69
2024/01/17 01:14:17;;;;;;;22.30;12.45;;;-2.80;1.00;;;;;;7372473;19;21187;-69
2024/01/17 01:16:47;;;;;;;24.67;13.75;;;-2.90;1.00;;;;;;7369529;19;20082;-69
2024/01/17 01:19:18;;;;;;;27.67;14.45;;;-2.80;1.00;;;;;;7372567;19;20081;-70
2024/01/17 01:21:48;;;;;;;25.33;14.40;;;-2.90;1.00;;;;;;7370750;19;20719;-69
2024/01/17 01:24:21;;;;;;;23.85;13.82;;;-2.80;1.00;;;;;;7370548;19;20017;-69
2024/01/17 01:26:51;;;;;;;26.00;14.60;;;-2.80;1.00;;;;;;7370502;19;20010;-70
2024/01/17 01:29:21;;;;;;;21.98;13.00;;;-2.80;1.00;;;;;;7373674;19;20011;-69
2024/01/17 01:31:51;;;;;;;25.50;12.70;;;-2.70;1.00;;;;;;7369907;19;20013;-68
2024/01/17 01:34:22;;;;;;;20.52;12.40;;;-2.70;1.00;;;;;;7372395;19;20592;-68
2024/01/17 01:36:54;;;;;;;18.00;11.50;;;-2.70;1.00;;;;;;7368919;19;20010;-69
2024/01/17 01:39:26;;;;;;;25.80;14.55;;;-2.70;1.00;;;;;;7370871;19;20872;-70
2024/01/17 01:41:58;;;;;;;24.15;13.60;;;-2.70;1.00;;;;;;7364571;19;20014;-69
2024/01/17 01:44:28;;;;;;;24.50;12.85;;;-2.70;1.00;;;;;;7369810;19;20019;-68
2024/01/17 01:46:59;;;;;;;25.17;13.43;;;-2.60;1.00;;;;;;7368478;19;20027;-69
2024/01/17 01:49:29;;;;;;;22.33;13.18;;;-2.60;1.00;;;;;;7370837;19;20011;-69
2024/01/17 01:51:59;;;;;;;21.92;12.52;;;-2.60;1.00;;;;;;7370903;19;20089;-69
2024/01/17 01:54:32;;;;;;;20.27;13.25;;;-2.50;1.00;;;;;;7370461;19;20018;-69
2024/01/17 01:57:03;;;;;;;22.55;13.45;;;-2.50;1.00;;;;;;7367417;19;20022;-70
2024/01/17 01:59:34;;;;;;;22.60;13.93;;;-2.40;1.00;;;;;;7369198;19;20014;-69
2024/01/17 02:02:05;;;;;;;24.75;13.52;;;-2.50;1.00;;;;;;7368726;19;20028;-69
2024/01/17 02:04:36;;;;;;;22.17;12.52;;;-2.40;1.00;;;;;;7370212;19;20025;-69
2024/01/17 02:07:08;;;;;;;23.20;11.80;;;-2.40;1.00;;;;;;7368021;19;20371;-68
2024/01/17 02:09:42;;;;;;;23.27;13.63;;;-2.50;1.00;;;;;;7367119;19;20015;-68
2024/01/17 02:12:12;;;;;;;24.20;12.60;;;-2.40;1.00;;;;;;7369878;19;20010;-68
2024/01/17 02:14:43;;;;;;;21.35;12.52;;;-2.30;1.00;;;;;;7369562;19;21283;-68
2024/01/17 02:17:13;;;;;;;24.35;14.65;;;-2.30;1.00;;;;;;7370348;19;20019;-68
2024/01/17 02:19:44;;;;;;;23.85;12.98;;;-2.30;1.00;;;;;;7369393;19;20010;-69
2024/01/17 02:22:14;;;;;;;24.65;13.90;;;-2.30;1.00;;;;;;7365858;19;20013;-70
2024/01/17 02:24:47;;;;;;;24.05;13.57;;;-2.20;1.00;;;;;;7367757;19;20025;-68
2024/01/17 02:27:17;;;;;;;22.73;13.88;;;-2.20;1.00;;;;;;7366444;19;20087;-69
2024/01/17 02:29:48;;;;;;;24.58;13.63;;;-2.20;1.00;;;;;;7366612;19;20553;-68
2024/01/17 02:32:19;;;;;;;20.98;13.95;;;-2.30;1.00;;;;;;7367452;19;20088;-68
2024/01/17 02:34:49;;;;;;;23.33;15.48;;;-2.30;1.00;;;;;;7369602;19;20089;-67
2024/01/17 02:37:20;;;;;;;26.08;15.30;;;-2.30;1.00;;;;;;7367633;19;20025;-67
2024/01/17 02:39:53;;;;;;;23.35;15.88;;;-2.30;1.00;;;;;;7368196;19;20014;-70
2024/01/17 02:42:23;;;;;;;23.80;13.60;;;-2.30;1.00;;;;;;7370171;19;20014;-68
2024/01/17 02:44:53;;;;;;;25.27;14.02;;;-2.20;1.00;;;;;;7366239;19;20011;-69
2024/01/17 02:47:23;;;;;;;26.88;15.60;;;-2.20;1.00;;;;;;7366162;19;20010;-69
2024/01/17 02:49:53;;;;;;;25.00;13.05;;;-2.10;1.00;;;;;;7368893;19;20022;-69
2024/01/17 02:52:23;;;;;;;18.73;12.57;;;-2.10;1.00;;;;;;7364848;19;20039;-70
2024/01/17 02:54:56;;;;;;;22.58;13.30;;;-2.00;1.00;;;;;;7368627;19;20014;-69
2024/01/17 02:57:26;;;;;;;22.52;12.35;;;-2.10;1.00;;;;;;7364411;19;20020;-69
2024/01/17 02:59:56;;;;;;;25.17;13.20;;;-2.10;1.00;;;;;;7366038;19;20065;-70
2024/01/17 03:02:26;;;;;;;22.65;14.35;;;-2.10;1.00;;;;;;7368307;19;20014;-69
2024/01/17 03:04:56;;;;;;;20.95;14.00;;;-2.10;1.00;;;;;;7366179;19;20011;-68
2024/01/17 03:07:26;;;;;;;20.15;12.75;;;-2.10;1.00;;;;;;7368511;19;20010;-68
2024/01/17 03:09:59;;;;;;;20.92;12.55;;;-2.10;1.00;;;;;;7369592;19;20522;-69
2024/01/17 03:12:30;;;;;;;24.00;13.32;;;-2.10;1.00;;;;;;7365213;19;20006;-68
2024/01/17 03:15:00;;;;;;;20.77;12.55;;;-2.10;1.00;;;;;;7367497;19;20040;-69
2024/01/17 03:17:30;;;;;;;25.38;14.93;;;-2.00;1.00;;;;;;7366414;19;20002;-69
2024/01/17 03:20:00;;;;;;;20.17;12.10;;;-1.90;1.00;;;;;;7367359;19;20062;-68
2024/01/17 03:22:30;;;;;;;21.40;13.88;;;-1.90;1.00;;;;;;7366813;19;20014;-68
2024/01/17 03:25:03;;;;;;;23.90;15.52;;;-1.90;1.00;;;;;;7366625;19;20071;-69
2024/01/17 03:27:33;;;;;;;23.08;13.30;;;-1.90;1.00;;;;;;7363786;19;20015;-69
2024/01/17 03:30:03;;;;;;;28.23;13.48;;;-1.90;1.00;;;;;;7365974;19;20014;-68
2024/01/17 03:32:33;;;;;;;21.17;14.07;;;-1.90;1.00;;;;;;7367382;19;20010;-70
2024/01/17 03:35:03;;;;;;;23.40;13.70;;;-1.90;1.00;;;;;;7365264;19;20029;-69
2024/01/17 03:37:33;;;;;;;21.25;14.20;;;-1.80;1.00;;;;;;7365275;19;20006;-69
2024/01/17 03:40:07;;;;;;;20.02;13.48;;;-1.80;1.00;;;;;;7367909;19;20467;-70
2024/01/17 03:42:37;;;;;;;26.10;13.27;;;-1.90;1.00;;;;;;7367241;19;20027;-70
2024/01/17 03:45:07;;;;;;;25.40;14.32;;;-1.90;1.00;;;;;;7365840;19;20284;-71
2024/01/17 03:47:38;;;;;;;23.55;15.38;;;-2.00;1.00;;;;;;7364754;19;20471;-69
2024/01/17 03:50:09;;;;;;;25.05;14.65;;;-2.00;1.00;;;;;;7365224;19;20025;-70
2024/01/17 03:52:39;;;;;;;24.08;14.63;;;-2.00;1.00;;;;;;7366535;19;20018;-71
2024/01/17 03:55:12;;;;;;;24.60;14.52;;;-2.00;1.00;;;;;;7367484;19;20023;-68
2024/01/17 03:57:42;;;;;;;26.25;14.50;;;-2.00;1.00;;;;;;7365482;19;20003;-70
2024/01/17 04:00:13;;;;;;;23.00;14.13;;;-2.10;1.00;;;;;;7364660;19;20010;-69
2024/01/17 04:02:43;;;;;;;29.67;13.35;;;-2.20;1.00;;;;;;7363364;19;20015;-68
2024/01/17 04:05:13;;;;;;;22.98;13.77;;;-2.10;1.00;;;;;;7365818;19;20048;-68
2024/01/17 04:07:43;;;;;;;26.20;13.65;;;-2.10;1.00;;;;;;7364726;19;20057;-70
2024/01/17 04:10:16;;;;;;;25.88;15.48;;;-2.10;1.00;;;;;;7366673;19;20712;-70
2024/01/17 04:12:46;;;;;;;24.77;15.20;;;-2.10;1.00;;;;;;7366924;19;20010;-68
2024/01/17 04:15:16;;;;;;;24.08;15.80;;;-2.00;1.00;;;;;;7365870;19;20082;-69
2024/01/17 04:17:46;;;;;;;25.60;14.77;;;-2.10;1.00;;;;;;7364982;19;20015;-70
2024/01/17 04:20:17;;;;;;;26.85;16.15;;;-2.00;1.00;;;;;;7367071;19;20018;-70
2024/01/17 04:22:47;;;;;;;29.92;15.05;;;-2.10;1.00;;;;;;7365143;19;20475;-69
2024/01/17 04:25:19;;;;;;;26.85;16.52;;;-2.00;1.00;;;;;;7365604;19;20014;-69
2024/01/17 04:27:50;;;;;;;25.40;15.23;;;-1.90;1.00;;;;;;7364214;19;20018;-69
2024/01/17 04:30:20;;;;;;;26.92;14.63;;;-1.90;1.00;;;;;;7363836;19;20094;-68
2024/01/17 04:32:50;;;;;;;24.85;15.82;;;-1.90;1.00;;;;;;7365410;19;20022;-68
2024/01/17 04:35:21;;;;;;;28.52;16.52;;;-1.90;1.00;;;;;;7367061;19;20702;-69
2024/01/17 04:37:51;;;;;;;27.85;16.30;;;-1.90;1.00;;;;;;7362442;19;20014;-68
2024/01/17 04:40:23;;;;;;;30.33;16.42;;;-1.80;1.00;;;;;;7365015;19;20014;-69
2024/01/17 04:42:53;;;;;;;28.42;16.35;;;-1.70;1.00;;;;;;7366453;19;20007;-69
2024/01/17 04:45:23;;;;;;;29.30;17.38;;;-1.80;1.00;;;;;;7364689;19;20007;-68
2024/01/17 04:47:53;;;;;;;27.70;15.70;;;-1.70;1.00;;;;;;7362300;19;21307;-69
2024/01/17 04:50:23;;;;;;;26.95;16.05;;;-1.70;1.00;;;;;;7365325;19;20014;-68
2024/01/17 04:52:54;;;;;;;31.02;19.35;;;-1.70;1.00;;;;;;7363907;19;20089;-69
2024/01/17 04:55:26;;;;;;;29.00;18.30;;;-1.60;1.00;;;;;;7362520;19;20024;-69
2024/01/17 04:57:56;;;;;;;33.00;20.55;;;-1.50;1.00;;;;;;7362801;19;20018;-69
2024/01/17 05:00:26;;;;;;;30.60;17.95;;;-1.50;1.00;;;;;;7362740;19;20013;-70
2024/01/17 05:02:56;;;;;;;28.02;19.23;;;-1.50;1.00;;;;;;7363575;19;20006;-69
2024/01/17 05:05:26;;;;;;;28.42;18.05;;;-1.50;1.00;;;;;;7363393;19;20007;-70
2024/01/17 05:07:57;;;;;;;33.33;19.35;;;-1.50;1.00;;;;;;7362338;19;20021;-68
2024/01/17 05:10:30;;;;;;;32.70;17.65;;;-1.60;1.00;;;;;;7361647;19;20082;-69
2024/01/17 05:13:00;;;;;;;30.98;19.17;;;-1.60;1.00;;;;;;7363202;19;20372;-69
2024/01/17 05:15:30;;;;;;;32.25;21.10;;;-1.60;1.00;;;;;;7363856;19;20014;-68
2024/01/17 05:18:01;;;;;;;30.10;17.60;;;-1.60;1.00;;;;;;7362543;19;20430;-70
2024/01/17 05:20:31;;;;;;;30.55;19.20;;;-1.50;1.00;;;;;;7364603;19;20010;-69
2024/01/17 05:23:01;;;;;;;32.10;18.40;;;-1.50;3.30;;;;;;7364810;19;20010;-70
2024/01/17 05:25:35;;;;;;;35.58;20.38;;;-1.50;6.10;;;;;;7363303;19;20010;-70
2024/01/17 05:28:06;;;;;;;;;;;-1.50;9.50;;;;;;7363454;19;20022;-69
2024/01/17 05:30:36;;;;;;;31.67;18.80;;;-1.40;14.70;;;;;;7363802;19;19907;-69
2024/01/17 05:33:07;;;;;;;33.17;19.55;;;-1.30;16.80;;;;;;7363392;19;20012;-68
2024/01/17 05:35:37;;;;;;;32.35;21.00;;;-1.30;17.00;;;;;;7366005;19;20010;-69
2024/01/17 05:38:08;;;;;;;37.65;22.10;;;-1.30;21.10;;;;;;7357838;19;20006;-70
2024/01/17 05:40:40;;;;;;;36.40;20.30;;;-1.20;25.30;;;;;;7362405;19;20562;-69
2024/01/17 05:43:11;;;;;;;34.50;20.98;;;-1.20;24.10;;;;;;7362777;19;20027;-69
2024/01/17 05:45:41;;;;;;;32.75;19.83;;;-1.20;29.30;;;;;;7364165;19;20037;-68
2024/01/17 05:48:11;;;;;;;34.38;21.10;;;-1.10;31.40;;;;;;7361616;19;20006;-69
2024/01/17 05:50:41;;;;;;;37.85;22.80;;;-1.00;36.10;;;;;;7361551;19;20018;-70
2024/01/17 05:53:11;;;;;;;35.45;22.58;;;-0.90;42.00;;;;;;7363036;19;20011;-70
2024/01/17 05:55:44;;;;;;;34.95;23.08;;;-0.80;47.40;;;;;;7361157;19;20055;-71
2024/01/17 05:58:14;;;;;;;32.78;21.33;;;-0.80;50.50;;;;;;7364443;19;20014;-69
2024/01/17 06:00:44;;;;;;;39.45;24.13;;;-0.80;58.00;;;;;;7368744;19;20022;-70
2024/01/17 06:03:15;;;;;;;37.47;23.90;;;-0.70;64.50;;;;;;7369317;19;20673;-69
2024/01/17 06:05:45;;;;;;;37.15;22.65;;;-0.70;69.60;;;;;;7370294;19;20022;-70
2024/01/17 06:08:15;;;;;;;37.10;23.17;;;-0.60;74.00;;;;;;7368742;19;20015;-68
2024/01/17 06:10:48;;;;;;;37.33;23.25;;;-0.60;79.10;;;;;;7369590;19;20817;-69
2024/01/17 06:13:18;;;;;;;36.72;22.75;;;-0.60;74.70;;;;;;7369997;19;20045;-68
2024/01/17 06:15:48;;;;;;;34.88;21.92;;;-0.60;77.90;;;;;;7369933;19;20157;-69
2024/01/17 06:18:18;;;;;;;41.40;21.88;;;-0.60;82.20;;;;;;7367183;19;20059;-70
2024/01/17 06:20:49;;;;;;;35.95;22.17;;;-0.60;85.60;;;;;;7368437;19;20026;-70
2024/01/17 06:23:19;;;;;;;43.88;24.30;;;-0.50;91.10;;;;;;7369853;19;20011;-71
2024/01/17 06:25:51;;;;;;;41.08;25.60;;;-0.50;92.70;;;;;;7368465;19;20018;-70
2024/01/17 06:28:22;;;;;;;41.85;26.02;;;-0.50;94.10;;;;;;7366741;19;20013;-68
2024/01/17 06:30:52;;;;;;;41.15;24.30;;;-0.50;96.60;;;;;;7367546;19;20029;-68
2024/01/17 06:33:22;;;;;;;38.00;23.27;;;-0.40;98.60;;;;;;7368725;19;20014;-69
2024/01/17 06:35:52;;;;;;;39.92;22.75;;;-0.40;99.90;;;;;;7367771;19;20014;-70
2024/01/17 06:38:22;;;;;;;45.05;22.92;;;-0.40;99.90;;;;;;7367416;19;20021;-70
2024/01/17 06:40:56;;;;;;;39.53;23.63;;;-0.40;99.90;;;;;;7367785;19;20133;-70
2024/01/17 06:43:26;;;;;;;48.25;22.58;;;-0.40;99.90;;;;;;7368829;19;20015;-69
2024/01/17 06:45:56;;;;;;;41.88;22.85;;;-0.40;99.90;;;;;;7369733;19;20383;-69
2024/01/17 06:48:26;;;;;;;38.33;22.10;;;-0.40;99.90;;;;;;7367945;19;20010;-69
2024/01/17 06:50:56;;;;;;;39.35;22.70;;;-0.30;99.90;;;;;;7367808;19;20628;-69
2024/01/17 06:53:26;;;;;;;39.40;22.75;;;-0.30;99.90;;;;;;7370686;19;20774;-69
2024/01/17 06:55:59;;;;;;;37.55;22.63;;;-0.20;99.90;;;;;;7368009;19;20097;-68
2024/01/17 06:58:29;;;;;;;41.40;23.83;;;-0.20;99.90;;;;;;7366404;19;20648;-69
2024/01/17 07:00:59;;;;;;;37.85;23.08;;;-0.20;99.90;;;;;;7368199;19;20032;-69
2024/01/17 07:03:29;;;;;;;44.40;25.58;;;-0.10;99.90;;;;;;7367720;19;20823;-69
2024/01/17 07:05:59;;;;;;;40.45;24.23;;;0.00;99.90;;;;;;7366563;19;20020;-69
2024/01/17 07:08:29;;;;;;;41.83;24.30;;;0.00;99.90;;;;;;7365011;19;20002;-69
2024/01/17 07:11:02;;;;;;;40.35;23.08;;;0.00;99.90;;;;;;7368730;19;20014;-70
2024/01/17 07:13:32;;;;;;;38.70;22.27;;;0.00;99.90;;;;;;7366849;19;20010;-71
2024/01/17 07:16:05;;;;;;;42.03;24.40;;;0.00;99.90;;;;;;7366943;19;20014;-70
2024/01/17 07:18:36;;;;;;;40.67;23.85;;;0.00;99.90;;;;;;7366042;19;20028;-70
2024/01/17 07:21:08;;;;;;;36.55;21.92;;;0.00;99.90;;;;;;7366554;19;20045;-69
2024/01/17 07:23:40;;;;;;;37.25;23.13;;;0.10;99.90;;;;;;7367945;19;20491;-70
2024/01/17 07:26:13;;;;;;;35.83;22.42;;;0.10;99.90;;;;;;7368169;19;20006;-69
2024/01/17 07:28:43;;;;;;;43.70;24.23;;;0.10;99.90;;;;;;7365860;19;20109;-70
2024/01/17 07:31:13;;;;;;;35.75;23.30;;;0.20;99.90;;;;;;7368192;19;20609;-70
2024/01/17 07:33:43;;;;;;;36.33;22.70;;;0.20;99.90;;;;;;7367144;19;20026;-69
2024/01/17 07:36:14;;;;;;;41.05;22.83;;;0.20;99.90;;;;;;7369150;19;20104;-69
2024/01/17 07:38:44;;;;;;;39.88;22.20;;;0.20;99.90;;;;;;7362445;19;20464;-69
2024/01/17 07:41:17;;;;;;;34.80;23.70;;;0.20;99.90;;;;;;7368088;19;20373;-69
2024/01/17 07:43:47;;;;;;;39.03;22.33;;;0.30;99.90;;;;;;7368177;19;20017;-71
2024/01/17 07:46:17;;;;;;;38.53;24.83;;;0.40;99.90;;;;;;7366988;19;20018;-69
2024/01/17 07:48:47;;;;;;;38.22;23.55;;;0.40;99.90;;;;;;7365914;19;20014;-70
2024/01/17 07:51:17;;;;;;;34.08;22.45;;;0.40;99.90;;;;;;7369074;19;20011;-70
2024/01/17 07:53:47;;;;;;;40.90;25.00;;;0.40;99.90;;;;;;7368075;19;20166;-70
2024/01/17 07:56:20;;;;;;;38.72;24.35;;;0.40;99.90;;;;;;7367263;19;20823;-71
2024/01/17 07:58:50;;;;;;;43.28;25.23;;;0.50;99.90;;;;;;7367715;19;20041;-71
2024/01/17 08:01:20;;;;;;;44.85;24.17;;;0.60;99.90;;;;;;7366596;19;20673;-71
2024/01/17 08:03:51;;;;;;;42.00;23.80;;;0.60;99.90;;;;;;7363326;19;20027;-71
2024/01/17 08:06:22;;;;;;;42.83;23.45;;;0.60;99.90;;;;;;7366228;19;20499;-70
2024/01/17 08:08:52;;;;;;;40.08;24.63;;;0.70;99.90;;;;;;7362853;19;20018;-69
2024/01/17 08:11:25;;;;;;;40.30;24.92;;;0.70;99.90;;;;;;7369312;19;20074;-71
2024/01/17 08:13:55;;;;;;;39.17;23.58;;;0.70;99.90;;;;;;7368355;19;20503;-71
2024/01/17 08:16:25;;;;;;;38.35;24.58;;;0.80;99.90;;;;;;7368109;19;20024;-71
2024/01/17 08:18:55;;;;;;;42.78;24.38;;;0.80;99.90;;;;;;7361760;19;20479;-71
2024/01/17 08:21:26;;;;;;;39.83;24.63;;;0.80;99.90;;;;;;7366208;19;20045;-71
2024/01/17 08:23:56;;;;;;;40.70;24.17;;;0.80;99.90;;;;;;7368233;19;20022;-70
2024/01/17 08:26:28;;;;;;;43.80;24.63;;;0.90;99.90;;;;;;7366423;19;20048;-70
2024/01/17 08:28:59;;;;;;;43.88;24.75;;;0.90;99.90;;;;;;7364237;19;20021;-70
2024/01/17 08:31:29;;;;;;;42.33;25.25;;;0.90;99.90;;;;;;7363901;19;20014;-70
2024/01/17 08:34:00;;;;;;;40.97;24.45;;;0.90;99.90;;;;;;7365446;19;20011;-70
2024/01/17 08:36:31;;;;;;;43.58;25.08;;;1.00;99.90;;;;;;7364644;19;20024;-70
2024/01/17 08:39:05;;;;;;;47.05;26.25;;;1.00;99.90;;;;;;7365706;19;20014;-70
2024/01/17 08:41:40;;;;;;;47.72;25.23;;;1.00;99.90;;;;;;7365845;19;20149;-70
2024/01/17 08:44:10;;;;;;;46.47;26.33;;;1.00;99.90;;;;;;7364976;19;20055;-71
2024/01/17 08:46:44;;;;;;;39.75;25.38;;;1.10;99.90;;;;;;7365758;19;20924;-70
2024/01/17 08:49:15;;;;;;;;;;;1.00;99.90;;;;;;7367343;19;20014;-70
2024/01/17 08:51:46;;;;;;;47.63;26.40;;;1.00;99.90;;;;;;7368206;19;19914;-70
2024/01/17 08:54:16;;;;;;;47.10;26.60;;;1.00;99.90;;;;;;7367323;19;20147;-70
2024/01/17 08:56:49;;;;;;;48.95;26.98;;;1.10;99.90;;;;;;7363886;19;21339;-70
2024/01/17 08:59:19;;;;;;;47.45;27.08;;;1.10;99.90;;;;;;7367084;19;20649;-71
2024/01/17 09:01:52;;;;;;;48.47;29.30;;;1.20;99.90;;;;;;7365573;19;21144;-70
2024/01/17 09:04:22;;;;;;;57.22;32.30;;;1.20;99.90;;;;;;7365978;19;20018;-70
2024/01/17 09:06:52;;;;;;;51.13;31.05;;;1.20;99.90;;;;;;7365094;19;20415;-70
2024/01/17 09:09:25;;;;;;;45.50;27.65;;;1.30;99.90;;;;;;7369710;19;20471;-71
2024/01/17 09:11:59;;;;;;;43.55;27.52;;;1.30;99.90;;;;;;7372393;19;20432;-70
2024/01/17 09:14:29;;;;;;;43.97;26.73;;;1.40;99.90;;;;;;7363341;19;20368;-70
2024/01/17 09:17:02;;;;;;;49.22;26.08;;;1.40;99.90;;;;;;7363343;19;20007;-69
2024/01/17 09:19:33;;;;;;;44.22;25.77;;;1.40;99.90;;;;;;7358605;19;20018;-69
2024/01/17 09:22:03;;;;;;;43.22;25.27;;;1.40;99.90;;;;;;7365354;19;20027;-69
2024/01/17 09:24:33;;;;;;;42.30;25.05;;;1.40;99.90;;;;;;7363290;19;20021;-69
2024/01/17 09:27:06;;;;;;;43.38;25.48;;;1.40;99.90;;;;;;7362489;19;20499;-70
2024/01/17 09:29:36;;;;;;;41.67;25.75;;;1.50;99.90;;;;;;7362800;19;20011;-69
2024/01/17 09:32:07;;;;;;;42.85;25.67;;;1.50;99.90;;;;;;7366840;19;20034;-69
2024/01/17 09:34:37;;;;;;;39.58;23.67;;;1.50;99.90;;;;;;7370520;19;20021;-69
2024/01/17 09:37:07;;;;;;;43.20;24.55;;;1.40;99.90;;;;;;7367556;19;20522;-68
2024/01/17 09:39:37;;;;;;;38.67;24.05;;;1.50;99.90;;;;;;7372336;19;20010;-70
2024/01/17 09:42:10;;;;;;;43.95;23.17;;;1.60;99.90;;;;;;7370500;19;20040;-71
2024/01/17 09:44:40;;;;;;;39.13;23.80;;;1.60;99.90;;;;;;7370282;19;20463;-68
2024/01/17 09:47:13;;;;;;;39.30;23.33;;;1.70;99.90;;;;;;7367150;19;20491;-69
2024/01/17 09:49:43;;;;;;;40.03;23.88;;;1.70;99.90;;;;;;7369597;19;20336;-68
2024/01/17 09:52:14;;;;;;;48.30;23.48;;;1.80;99.90;;;;;;7370186;19;20046;-69
2024/01/17 09:54:44;;;;;;;36.42;22.33;;;1.80;99.90;;;;;;7368492;19;20454;-70
2024/01/17 09:57:24;;;;;;;34.90;21.88;;;1.80;99.90;;;;;;7366360;19;20049;-70
2024/01/17 10:00:05;;;;;;;33.13;21.45;;;1.80;99.90;;;;;;7369660;19;20071;-70
2024/01/17 10:02:38;;;;;;;31.52;19.40;;;1.90;99.90;;;;;;7369743;19;20013;-70
2024/01/17 10:05:11;;;;;;;32.88;20.70;;;1.90;99.90;;;;;;7368184;19;20414;-69
2024/01/17 10:07:42;;;;;;;32.95;20.92;;;2.00;99.90;;;;;;7365158;19;20011;-69
2024/01/17 10:10:12;;;;;;;32.58;20.58;;;2.00;99.90;;;;;;7368836;19;20018;-68
2024/01/17 10:12:45;;;;;;;28.05;18.95;;;2.10;99.90;;;;;;7369340;19;20021;-68
2024/01/17 10:15:16;;;;;;;28.77;18.77;;;2.20;99.90;;;;;;7367682;19;20841;-69
2024/01/17 10:17:46;;;;;;;30.45;18.95;;;2.30;99.90;;;;;;7365693;19;20006;-70
2024/01/17 10:20:17;;;;;;;27.98;19.45;;;2.30;99.90;;;;;;7368845;19;20138;-69
2024/01/17 10:22:48;;;;;;;29.27;17.95;;;2.30;99.90;;;;;;7368218;19;20165;-69
2024/01/17 10:25:18;;;;;;;31.38;20.05;;;2.40;99.90;;;;;;7367621;19;20010;-69
2024/01/17 10:27:52;;;;;;;30.40;21.60;;;2.50;99.90;;;;;;7365581;19;20014;-68
2024/01/17 10:30:22;;;;;;;39.08;22.67;;;2.50;99.90;;;;;;7369491;19;20010;-70
2024/01/17 10:32:53;;;;;;;32.78;22.50;;;2.60;99.90;;;;;;7369163;19;20007;-69
2024/01/17 10:35:23;;;;;;;30.77;22.17;;;2.60;99.90;;;;;;7369326;19;20038;-68
2024/01/17 10:37:54;;;;;;;28.35;18.58;;;2.70;99.90;;;;;;7366568;19;20014;-71
2024/01/17 10:40:25;;;;;;;31.65;20.00;;;2.70;99.90;;;;;;7369122;19;20089;-70
2024/01/17 10:43:10;;;;;;;27.02;18.17;;;2.70;99.90;;;;;;7368444;19;20014;-70
2024/01/17 10:45:42;;;;;;;27.85;18.25;;;2.70;99.90;;;;;;7366625;19;20014;-70
2024/01/17 10:48:14;;;;;;;30.77;18.58;;;2.70;99.90;;;;;;7364961;19;20077;-70
2024/01/17 10:50:46;;;;;;;29.00;19.05;;;2.70;99.90;;;;;;7366641;19;20057;-70
2024/01/17 10:53:19;;;;;;;30.30;20.25;;;2.80;99.90;;;;;;7368324;19;20014;-70
2024/01/17 10:55:55;;;;;;;25.63;17.10;;;2.90;99.90;;;;;;7369077;19;20062;-71
2024/01/17 10:58:28;;;;;;;26.33;16.63;;;2.90;99.90;;;;;;7362770;19;20017;-71
2024/01/17 11:01:02;;;;;;;24.15;16.05;;;2.90;99.90;;;;;;7367629;19;20036;-70
2024/01/17 11:03:34;;;;;;;32.53;18.02;;;2.90;99.90;;;;;;7368195;19;20109;-69
2024/01/17 11:06:07;;;;;;;47.13;30.23;;;2.90;99.90;;;;;;7367437;19;20483;-70
2024/01/17 11:08:39;;;;;;;25.45;16.48;;;2.90;99.90;;;;;;7366929;19;20086;-70
2024/01/17 11:11:11;;;;;;;30.25;18.35;;;2.80;99.90;;;;;;7360418;19;20613;-71
2024/01/17 11:13:45;;;;;;;32.53;20.73;;;2.90;99.90;;;;;;7366808;19;20544;-71
2024/01/17 11:16:18;;;;;;;35.22;21.75;;;2.80;99.90;;;;;;7365452;19;20041;-71
2024/01/17 11:18:50;;;;;;;37.17;22.60;;;2.90;99.90;;;;;;7365883;19;20011;-70
2024/01/17 11:21:23;;;;;;;30.42;19.73;;;2.80;99.90;;;;;;7367383;19;20010;-70
2024/01/17 11:24:00;;;;;;;27.17;18.67;;;2.90;99.90;;;;;;7370692;19;20015;-70
2024/01/17 11:26:35;;;;;;;27.33;18.02;;;2.90;99.90;;;;;;7376365;19;20023;-71
2024/01/17 11:29:17;;;;;;;27.27;18.05;;;2.90;99.90;;;;;;7367916;19;20035;-69
2024/01/17 11:31:59;;;;;;;33.63;18.77;;;2.90;99.90;;;;;;7364510;19;20006;-71
2024/01/17 11:34:29;;;;;;;28.90;18.25;;;2.90;99.90;;;;;;7368180;19;20015;-71
2024/01/17 11:36:59;;;;;;;32.75;19.70;;;2.90;99.90;;;;;;7364358;19;20018;-71
2024/01/17 11:39:29;;;;;;;31.67;19.85;;;2.90;99.90;;;;;;7368125;19;20025;-70
2024/01/17 11:41:59;;;;;;;29.02;18.63;;;3.00;99.90;;;;;;7368146;19;20006;-71
2024/01/17 11:44:32;;;;;;;28.50;18.08;;;2.90;99.90;;;;;;7368603;19;20033;-70
2024/01/17 11:47:04;;;;;;;29.25;18.95;;;3.00;99.90;;;;;;7364375;19;20019;-70
2024/01/17 11:49:42;;;;;;;33.58;17.48;;;3.00;99.90;;;;;;7368011;19;20540;-70
2024/01/17 11:52:30;;;;;;;26.63;17.35;;;3.10;99.90;;;;;;7368601;19;20011;-70
2024/01/17 11:55:03;;;;;;;27.63;17.60;;;3.10;99.90;;;;;;6852147;19;2004747;-70
2024/01/17 11:57:35;;;;;;;27.05;17.27;;;3.20;99.90;;;;;;7363505;19;20028;-70
2024/01/17 12:00:11;;;;;;;25.98;17.58;;;3.20;99.90;;;;;;7365869;19;20129;-70
2024/01/17 12:02:43;;;;;;;27.27;17.67;;;3.20;99.90;;;;;;7366428;19;20385;-69
2024/01/17 12:05:14;;;;;;;27.00;19.30;;;3.30;99.90;;;;;;7360143;19;20014;-69
2024/01/17 12:07:49;;;;;;;31.80;19.55;;;3.30;99.90;;;;;;7363671;19;20036;-69
2024/01/17 12:10:20;;;;;;;28.40;18.15;;;3.30;99.90;;;;;;7363199;19;20344;-69
2024/01/17 12:12:50;;;;;;;27.27;17.27;;;3.40;99.90;;;;;;7365555;19;20015;-69
2024/01/17 12:15:23;;;;;;;27.88;18.85;;;3.40;99.90;;;;;;7364493;19;20006;-70
2024/01/17 12:17:53;;;;;;;23.27;16.37;;;3.60;99.90;;;;;;7361606;19;20088;-70
2024/01/17 12:20:23;;;;;;;28.23;17.13;;;3.50;99.90;;;;;;7365340;19;20010;-70
2024/01/17 12:22:55;;;;;;;25.50;16.83;;;3.50;99.90;;;;;;7365486;19;20515;-69
2024/01/17 12:25:25;;;;;;;29.17;16.23;;;3.60;99.90;;;;;;7364839;19;20014;-69
2024/01/17 12:27:56;;;;;;;27.23;18.27;;;3.70;99.90;;;;;;7361931;19;20077;-70
2024/01/17 12:30:29;;;;;;;31.33;18.75;;;3.70;99.90;;;;;;7364696;19;20011;-70
2024/01/17 12:32:59;;;;;;;26.90;17.60;;;3.80;99.90;;;;;;7365393;19;20018;-69
2024/01/17 12:35:30;;;;;;;23.40;16.58;;;3.80;99.90;;;;;;7363884;19;20010;-70
2024/01/17 12:38:00;;;;;;;29.33;15.63;;;3.70;99.90;;;;;;7361375;19;20010;-70
2024/01/17 12:40:30;;;;;;;20.08;14.88;;;3.80;99.90;;;;;;7363614;19;20680;-70
2024/01/17 12:43:00;;;;;;;21.98;15.50;;;3.70;99.90;;;;;;7365498;19;20010;-70
2024/01/17 12:45:34;;;;;;;21.90;14.75;;;3.70;99.90;;;;;;7364404;19;20017;-70
2024/01/17 12:48:05;;;;;;;24.13;15.05;;;3.80;99.90;;;;;;7361348;19;20025;-70
2024/01/17 12:50:35;;;;;;;21.80;14.13;;;4.00;99.90;;;;;;7364767;19;20018;-71
2024/01/17 12:53:07;;;;;;;21.23;14.27;;;4.00;99.90;;;;;;7364376;19;20015;-70
2024/01/17 12:55:38;;;;;;;22.63;14.18;;;4.20;99.90;;;;;;7361959;19;20010;-70